Terminal Aerodrome Forecast
Issued by NWS Sterling, VA

Current Version | Previous Version | Graphics & Text | Print | Product List | Glossary On
Versions: 1 2 3 4 5 6 7 8 9 10 11 12 13 14 15 16 17 18 19 20 21 22 23 24
000
FTUS41 KLWX 071720
TAFIAD
TAF
KIAD 071720Z 0718/0824 30010G18KT P6SM FEW040 BKN200
     FM072200 32005KT P6SM FEW200
     FM080900 00000KT P6SM BKN030
     FM081600 28006KT P6SM BKN030
     FM081800 28009KT P6SM SCT130=

USA.gov is the U.S. government's official web portal to all federal, state and local government web resources and services.